Time;durP1;ratioP1;P1;durP2;ratioP2;P2;SDS_P1;SDS_P2;PMS_P1;PMS_P2;Temp;Humidity;BMP_temperature;BMP_pressure;BME280_temperature;BME280_humidity;BME280_pressure;Samples;Min_cycle;Max_cycle;Signal;HPM_P1;HPM_P2
2022/04/21 00:00:07;;;;;;;9.75;4.35;;;9.40;99.90;;;;;;4981075;28;20094;-77
2022/04/21 00:02:33;;;;;;;5.07;3.95;;;9.40;99.90;;;;;;4981421;28;20054;-77
2022/04/21 00:04:59;;;;;;;4.07;3.72;;;9.40;99.90;;;;;;4968370;28;20030;-77
2022/04/21 00:07:25;;;;;;;5.05;3.80;;;9.40;99.90;;;;;;4982984;28;20030;-76
2022/04/21 00:09:52;;;;;;;4.85;3.70;;;9.40;99.90;;;;;;5000250;28;20475;-77
2022/04/21 00:12:18;;;;;;;4.18;3.80;;;9.40;99.90;;;;;;5000265;28;20039;-77
2022/04/21 00:14:43;;;;;;;7.18;4.13;;;9.40;99.90;;;;;;4982762;28;20026;-77
2022/04/21 00:17:09;;;;;;;5.65;3.70;;;9.40;99.90;;;;;;4982603;28;20568;-77
2022/04/21 00:19:36;;;;;;;6.43;3.50;;;9.40;99.90;;;;;;4982759;28;20061;-76
2022/04/21 00:24:46;;;;;;;7.28;3.90;;;9.40;99.90;;;;;;5000015;28;20085;-76
2022/04/21 00:27:12;;;;;;;6.47;3.58;;;9.40;99.90;;;;;;4982362;28;20019;-76
2022/04/21 00:29:39;;;;;;;5.53;3.45;;;9.40;99.90;;;;;;4999817;28;20027;-77
2022/04/21 00:32:05;;;;;;;6.63;3.88;;;9.40;99.90;;;;;;4999970;28;20050;-77
2022/04/21 00:34:34;;;;;;;4.13;3.55;;;9.40;99.90;;;;;;5000088;28;20037;-77
2022/04/21 00:37:00;;;;;;;6.88;3.63;;;9.40;99.90;;;;;;4999953;28;20018;-77
2022/04/21 00:39:26;;;;;;;7.38;3.63;;;9.40;99.90;;;;;;4982495;28;20037;-77
2022/04/21 00:41:57;;;;;;;7.15;3.33;;;9.40;99.90;;;;;;4999908;28;20029;-76
2022/04/21 00:44:22;;;;;;;4.57;3.03;;;9.40;99.90;;;;;;4999366;28;20087;-77
2022/04/21 00:46:48;;;;;;;4.15;3.22;;;9.40;99.90;;;;;;5000164;28;20070;-77
2022/04/21 00:49:17;;;;;;;5.90;3.60;;;9.30;99.90;;;;;;4982600;28;20526;-76
2022/04/21 00:51:43;;;;;;;4.07;3.08;;;9.30;99.90;;;;;;4982684;28;20057;-77
2022/04/21 00:54:09;;;;;;;5.93;3.42;;;9.30;99.90;;;;;;4999603;28;20027;-77
2022/04/21 00:56:35;;;;;;;3.33;2.95;;;9.30;99.90;;;;;;4999634;28;20030;-76
2022/04/21 00:59:03;;;;;;;7.43;3.28;;;9.30;99.90;;;;;;4999198;28;20085;-77
2022/04/21 01:04:14;;;;;;;3.42;3.10;;;9.20;99.90;;;;;;4999310;28;20034;-77
2022/04/21 01:06:40;;;;;;;6.40;3.40;;;9.30;99.90;;;;;;4999295;28;20018;-77
2022/04/21 01:09:05;;;;;;;3.40;2.90;;;9.20;99.90;;;;;;4999336;28;20018;-76
2022/04/21 01:11:31;;;;;;;5.75;3.38;;;9.20;99.90;;;;;;4999643;28;20022;-76
2022/04/21 01:13:59;;;;;;;4.72;3.28;;;9.30;99.90;;;;;;4998967;28;20109;-77
2022/04/21 01:16:25;;;;;;;4.90;3.10;;;9.30;99.90;;;;;;4981167;28;20050;-77
2022/04/21 01:18:52;;;;;;;5.75;3.22;;;9.20;99.90;;;;;;4979671;28;20025;-77
2022/04/21 01:21:17;;;;;;;6.75;3.35;;;9.20;99.90;;;;;;4962071;28;20042;-77
2022/04/21 01:23:43;;;;;;;3.72;3.10;;;9.30;99.90;;;;;;4979615;28;20074;-76
2022/04/21 01:26:11;;;;;;;3.88;3.45;;;9.20;99.90;;;;;;4962297;28;20031;-77
2022/04/21 01:28:38;;;;;;;4.10;3.10;;;9.20;99.90;;;;;;4979423;28;20027;-76
2022/04/21 01:31:04;;;;;;;6.13;3.30;;;9.20;99.90;;;;;;4979152;28;20022;-76
2022/04/21 01:33:29;;;;;;;4.30;3.08;;;9.20;99.90;;;;;;4978590;28;20026;-76
2022/04/21 01:35:55;;;;;;;4.18;3.67;;;9.10;99.90;;;;;;4979295;28;20038;-76
2022/04/21 01:41:11;;;;;;;7.63;3.67;;;9.10;99.90;;;;;;4979129;28;20123;-76
2022/04/21 01:43:40;;;;;;;4.10;3.50;;;9.10;99.90;;;;;;4978838;28;20509;-76
2022/04/21 01:46:06;;;;;;;3.80;3.40;;;9.10;99.90;;;;;;4978945;28;20026;-76
2022/04/21 01:48:32;;;;;;;6.03;3.72;;;9.10;99.90;;;;;;4991581;28;20054;-76
2022/04/21 01:50:58;;;;;;;3.47;3.17;;;9.10;99.90;;;;;;4998397;28;20023;-76
2022/04/21 01:53:24;;;;;;;5.22;3.90;;;9.10;99.90;;;;;;4998532;28;20018;-76
2022/04/21 01:55:51;;;;;;;4.60;3.55;;;9.10;99.90;;;;;;4998194;28;20027;-76
2022/04/21 01:58:17;;;;;;;3.35;3.05;;;9.00;99.90;;;;;;4980736;28;20022;-76
2022/04/21 02:00:43;;;;;;;3.75;3.38;;;9.10;99.90;;;;;;4980583;28;20030;-76
2022/04/21 02:03:09;;;;;;;3.50;3.20;;;9.00;99.90;;;;;;4998629;28;20023;-76
2022/04/21 02:05:34;;;;;;;6.00;3.42;;;9.00;99.90;;;;;;4998209;28;20019;-76
2022/04/21 02:08:03;;;;;;;5.03;3.50;;;9.00;99.90;;;;;;4998618;28;20030;-76
2022/04/21 02:10:30;;;;;;;4.68;3.40;;;9.00;99.90;;;;;;4998653;28;20015;-76
2022/04/21 02:12:57;;;;;;;5.07;3.47;;;9.00;99.90;;;;;;4998188;28;20026;-76
2022/04/21 02:15:23;;;;;;;4.15;3.58;;;9.00;99.90;;;;;;4997779;28;20038;-76
2022/04/21 02:17:50;;;;;;;5.13;4.20;;;9.00;99.90;;;;;;4986413;28;20070;-76
2022/04/21 02:20:16;;;;;;;6.47;4.50;;;9.00;99.90;;;;;;4961158;28;20061;-76
2022/04/21 02:22:43;;;;;;;5.63;3.95;;;9.00;99.90;;;;;;4978602;28;20085;-76
2022/04/21 02:25:11;;;;;;;6.50;4.30;;;9.00;99.90;;;;;;4960904;28;20041;-76
2022/04/21 02:27:41;;;;;;;5.38;3.80;;;9.00;99.90;;;;;;4978428;28;20114;-76
2022/04/21 02:30:09;;;;;;;5.07;3.75;;;9.00;99.90;;;;;;4985007;28;20023;-77
2022/04/21 02:32:35;;;;;;;6.82;4.03;;;9.00;99.90;;;;;;4980284;28;20402;-78
2022/04/21 02:35:02;;;;;;;9.77;4.32;;;9.00;99.90;;;;;;4997337;28;20367;-78
2022/04/21 02:37:34;;;;;;;6.82;4.32;;;9.00;99.90;;;;;;4980299;28;20030;-75
2022/04/21 02:39:59;;;;;;;8.07;4.40;;;9.00;99.90;;;;;;4980259;28;20127;-75
2022/04/21 02:42:25;;;;;;;5.70;4.00;;;9.00;99.90;;;;;;4997858;28;20022;-75
2022/04/21 02:44:51;;;;;;;4.03;3.60;;;9.00;99.90;;;;;;4997320;28;20030;-75
2022/04/21 02:47:17;;;;;;;5.63;4.07;;;9.00;99.90;;;;;;4997649;28;20023;-76
2022/04/21 02:49:47;;;;;;;5.97;3.78;;;9.00;99.90;;;;;;4980289;28;20018;-78
2022/04/21 02:52:14;;;;;;;3.73;3.20;;;9.00;99.90;;;;;;4997762;28;20029;-75
2022/04/21 02:57:27;;;;;;;5.32;3.47;;;9.00;99.90;;;;;;4997619;28;20449;-78
2022/04/21 02:59:58;;;;;;;7.22;3.50;;;9.00;99.90;;;;;;4997479;28;20026;-75
2022/04/21 03:02:24;;;;;;;3.70;3.40;;;9.00;99.90;;;;;;4980225;28;20034;-76
2022/04/21 03:04:52;;;;;;;4.35;3.40;;;9.00;99.90;;;;;;4997541;28;20450;-76
2022/04/21 03:07:22;;;;;;;4.10;3.50;;;9.00;99.90;;;;;;4979872;28;20034;-75
2022/04/21 03:09:53;;;;;;;3.60;3.17;;;9.00;99.90;;;;;;4997548;28;20014;-75
2022/04/21 03:12:21;;;;;;;4.30;3.30;;;9.00;99.90;;;;;;4997193;28;20022;-78
2022/04/21 03:14:49;;;;;;;7.43;3.70;;;9.00;99.90;;;;;;4997053;28;20055;-78
2022/04/21 03:17:15;;;;;;;4.57;3.60;;;9.10;99.90;;;;;;4990589;28;20018;-78
2022/04/21 03:19:41;;;;;;;5.15;3.95;;;9.00;99.90;;;;;;4960523;28;20391;-78
2022/04/21 03:24:56;;;;;;;5.30;3.60;;;9.10;99.90;;;;;;4978082;28;20156;-78
2022/04/21 03:27:22;;;;;;;5.68;3.75;;;9.00;99.90;;;;;;4960960;28;20046;-78
2022/04/21 03:29:47;;;;;;;4.53;3.50;;;9.10;99.90;;;;;;4978264;28;20467;-78
2022/04/21 03:32:14;;;;;;;4.35;3.95;;;9.10;99.90;;;;;;4960862;28;20019;-78
2022/04/21 03:34:41;;;;;;;3.70;3.17;;;9.10;99.90;;;;;;4977944;28;20023;-78
2022/04/21 03:37:13;;;;;;;5.22;4.20;;;9.10;99.90;;;;;;4977985;28;20050;-76
2022/04/21 03:39:40;;;;;;;4.00;3.42;;;9.10;99.90;;;;;;4960554;28;20181;-76
2022/04/21 03:42:07;;;;;;;4.40;4.00;;;9.10;99.90;;;;;;4960561;28;20483;-75
2022/04/21 03:44:39;;;;;;;4.07;3.67;;;9.10;99.90;;;;;;4960035;28;20027;-76
2022/04/21 03:47:06;;;;;;;5.85;4.00;;;9.10;99.90;;;;;;4977789;28;20109;-76
2022/04/21 03:49:32;;;;;;;4.70;3.70;;;9.10;99.90;;;;;;4960275;28;20042;-75
2022/04/21 03:51:58;;;;;;;5.35;3.97;;;9.10;99.90;;;;;;4977692;28;20026;-76
2022/04/21 03:54:26;;;;;;;4.32;3.53;;;9.10;99.90;;;;;;4977922;28;20041;-75
2022/04/21 03:56:55;;;;;;;3.65;3.33;;;9.10;99.90;;;;;;4977879;28;20022;-75
2022/04/21 03:59:23;;;;;;;4.10;3.63;;;9.10;99.90;;;;;;4981106;28;20066;-75
2022/04/21 04:01:50;;;;;;;4.43;3.85;;;9.10;99.90;;;;;;4963833;28;20027;-76
2022/04/21 04:04:16;;;;;;;6.50;3.35;;;9.10;99.90;;;;;;4963728;28;20034;-75
2022/04/21 04:12:11;;;;;;;6.97;3.70;;;9.10;99.90;;;;;;5000211;28;20544;-78
2022/04/21 04:14:38;;;;;;;4.90;3.90;;;9.10;99.90;;;;;;5000112;28;20022;-78
2022/04/21 04:17:06;;;;;;;3.90;3.50;;;9.10;99.90;;;;;;4982554;28;20038;-78
2022/04/21 04:19:33;;;;;;;7.47;3.60;;;9.00;99.90;;;;;;5000195;28;20031;-77
2022/04/21 04:22:00;;;;;;;4.25;3.20;;;9.00;99.90;;;;;;5000125;28;20521;-77
2022/04/21 04:24:26;;;;;;;4.10;3.50;;;9.00;99.90;;;;;;4982562;28;20037;-77
2022/04/21 04:26:52;;;;;;;4.15;3.75;;;9.00;99.90;;;;;;5000157;28;20018;-77
2022/04/21 04:29:22;;;;;;;3.92;3.53;;;9.00;99.90;;;;;;4999976;28;20490;-77
2022/04/21 04:31:57;;;;;;;5.20;3.70;;;9.00;99.90;;;;;;5000059;28;20014;-77
2022/04/21 04:34:23;;;;;;;8.75;3.92;;;9.00;99.90;;;;;;4999914;28;20026;-77
2022/04/21 04:36:49;;;;;;;4.10;3.63;;;9.00;99.90;;;;;;4982789;28;20050;-77
2022/04/21 04:39:16;;;;;;;4.15;3.45;;;9.10;99.90;;;;;;4982195;28;20113;-77
2022/04/21 04:44:26;;;;;;;5.97;3.83;;;9.00;99.90;;;;;;4999900;28;20033;-77
2022/04/21 04:46:52;;;;;;;4.20;3.75;;;9.10;99.90;;;;;;5000207;28;20026;-77
2022/04/21 04:49:18;;;;;;;5.07;3.65;;;9.00;99.90;;;;;;4982332;28;20028;-77
2022/04/21 04:51:44;;;;;;;10.77;5.38;;;9.10;99.90;;;;;;5000076;28;20149;-77
2022/04/21 04:54:12;;;;;;;5.57;4.20;;;9.10;99.90;;;;;;4999874;28;20022;-77
2022/04/21 04:56:41;;;;;;;6.57;4.13;;;9.10;99.90;;;;;;4999687;28;20026;-77
2022/04/21 04:59:07;;;;;;;8.48;4.82;;;9.10;99.90;;;;;;4999048;28;20506;-77
2022/04/21 05:01:39;;;;;;;5.47;3.88;;;9.10;99.90;;;;;;4981381;28;20027;-77
2022/04/21 05:04:25;;;;;;;7.82;5.07;;;9.10;99.90;;;;;;4982696;28;20040;-77
2022/04/21 05:06:54;;;;;;;8.82;4.68;;;9.10;99.90;;;;;;4981522;28;20066;-77
2022/04/21 05:09:23;;;;;;;9.23;4.90;;;9.10;99.90;;;;;;4999247;28;20493;-77
2022/04/21 05:11:53;;;;;;;15.18;6.15;;;9.10;99.90;;;;;;4981440;28;20026;-77
2022/04/21 05:14:20;;;;;;;8.63;4.55;;;9.10;99.90;;;;;;4999612;28;20031;-77
2022/04/21 05:16:46;;;;;;;10.55;6.25;;;9.10;99.90;;;;;;4995530;28;20054;-77
2022/04/21 05:19:17;;;;;;;8.38;5.00;;;9.10;99.90;;;;;;4979804;28;20027;-77
2022/04/21 05:21:44;;;;;;;8.52;5.63;;;9.10;99.90;;;;;;4979555;28;20019;-77
2022/04/21 05:24:10;;;;;;;7.00;4.60;;;9.10;99.90;;;;;;4979554;28;20034;-77
2022/04/21 05:26:37;;;;;;;6.95;4.55;;;9.10;99.90;;;;;;4979477;28;20105;-77
2022/04/21 05:30:55;;;;;;;4.65;4.03;;;9.10;99.90;;;;;;4979511;28;21106;-77
2022/04/21 05:32:01;;;;;;;5.70;4.13;;;9.10;99.90;;;;;;4986445;28;20022;-77
2022/04/21 05:34:29;;;;;;;4.93;4.45;;;9.10;99.90;;;;;;4988711;28;20045;-77
2022/04/21 05:36:56;;;;;;;3.55;3.22;;;9.10;99.90;;;;;;4967733;28;20086;-77
2022/04/21 05:39:23;;;;;;;4.53;4.00;;;9.10;99.90;;;;;;4979501;28;20078;-77
2022/04/21 05:41:51;;;;;;;4.03;3.72;;;9.10;99.90;;;;;;4979015;28;20451;-76
2022/04/21 05:44:18;;;;;;;4.07;3.50;;;9.10;99.90;;;;;;4961802;28;20427;-77
2022/04/21 05:46:44;;;;;;;4.18;3.78;;;9.10;99.90;;;;;;4979198;28;20023;-77
2022/04/21 05:49:11;;;;;;;4.78;4.07;;;9.10;99.90;;;;;;4979044;28;20027;-76
2022/04/21 05:51:38;;;;;;;4.53;4.10;;;9.10;99.90;;;;;;4979390;28;20098;-77
2022/04/21 05:54:06;;;;;;;4.35;3.95;;;9.10;99.90;;;;;;4978817;28;20479;-77
2022/04/21 05:56:33;;;;;;;3.83;3.53;;;9.10;99.90;;;;;;4979124;28;20022;-77
2022/04/21 05:58:59;;;;;;;4.32;3.85;;;9.10;99.90;;;;;;4978526;28;20506;-77
2022/04/21 06:01:25;;;;;;;3.72;3.42;;;9.10;99.90;;;;;;4979079;28;20054;-77
2022/04/21 06:03:52;;;;;;;4.20;3.85;;;9.10;99.90;;;;;;4981761;28;20030;-77
2022/04/21 06:06:18;;;;;;;5.43;4.13;;;9.10;99.90;;;;;;4980774;28;20482;-77
2022/04/21 06:08:45;;;;;;;4.10;3.70;;;9.10;99.90;;;;;;4980053;28;20093;-76
2022/04/21 06:11:14;;;;;;;4.50;4.10;;;9.10;99.90;;;;;;4997618;28;20069;-76
2022/04/21 06:13:43;;;;;;;5.53;4.43;;;9.20;99.90;;;;;;4965032;28;20110;-79
2022/04/21 06:16:09;;;;;;;4.38;4.00;;;9.20;99.90;;;;;;4968140;28;20070;-79
2022/04/21 06:18:36;;;;;;;4.68;4.20;;;9.20;99.90;;;;;;4971533;28;20031;-78
2022/04/21 06:21:03;;;;;;;4.68;4.28;;;9.20;99.90;;;;;;4981791;28;20034;-78
2022/04/21 06:23:30;;;;;;;5.13;4.13;;;9.20;99.90;;;;;;4979474;28;20022;-79
2022/04/21 06:25:59;;;;;;;5.15;4.65;;;9.20;99.90;;;;;;4961135;28;20026;-80
2022/04/21 06:28:28;;;;;;;4.95;4.55;;;9.30;99.90;;;;;;4978122;28;20058;-79
2022/04/21 06:30:54;;;;;;;5.25;4.75;;;9.30;99.90;;;;;;4979048;28;20505;-78
2022/04/21 06:33:20;;;;;;;5.25;4.75;;;9.30;99.90;;;;;;4995039;28;20027;-76
2022/04/21 06:35:46;;;;;;;7.22;4.65;;;9.30;99.90;;;;;;4995484;28;20364;-81
2022/04/21 06:38:13;;;;;;;7.20;4.97;;;9.40;99.90;;;;;;4992501;28;20031;-77
2022/04/21 06:40:39;;;;;;;5.38;4.88;;;9.40;99.90;;;;;;4979600;28;20026;-79
2022/04/21 06:48:42;;;;;;;5.03;4.60;;;9.50;99.90;;;;;;4994436;28;20088;-81
2022/04/21 06:51:08;;;;;;;5.93;4.70;;;9.50;99.90;;;;;;4996054;28;20022;-81
2022/04/21 06:53:34;;;;;;;5.75;5.07;;;9.50;99.90;;;;;;4995694;28;20055;-80
2022/04/21 06:56:01;;;;;;;7.03;6.07;;;9.50;99.90;;;;;;4965576;28;20395;-78
2022/04/21 06:58:27;;;;;;;5.70;5.20;;;9.60;99.90;;;;;;4967299;28;20031;-79
2022/04/21 07:00:53;;;;;;;7.20;6.57;;;9.60;99.90;;;;;;4993286;28;20478;-79
2022/04/21 07:03:19;;;;;;;6.47;4.90;;;9.60;99.90;;;;;;4997492;28;20050;-79
2022/04/21 07:05:45;;;;;;;8.25;7.25;;;9.60;99.90;;;;;;4979878;28;20030;-79
2022/04/21 07:08:11;;;;;;;8.15;5.35;;;9.70;99.90;;;;;;4997360;28;20093;-79
2022/04/21 07:10:37;;;;;;;5.22;4.82;;;9.60;99.90;;;;;;4988279;28;20054;-79
2022/04/21 07:13:10;;;;;;;5.90;5.30;;;9.70;99.90;;;;;;4996532;28;20027;-79
2022/04/21 07:15:36;;;;;;;4.18;3.78;;;9.70;99.90;;;;;;4972512;28;20049;-77
2022/04/21 07:18:03;;;;;;;3.95;3.53;;;9.70;99.90;;;;;;4963208;28;20032;-77
2022/04/21 07:20:29;;;;;;;6.13;3.83;;;9.70;99.90;;;;;;4966040;28;20031;-77
2022/04/21 07:22:55;;;;;;;3.50;3.20;;;9.70;99.90;;;;;;4972282;28;20114;-77
2022/04/21 07:25:21;;;;;;;4.22;3.80;;;9.70;99.90;;;;;;4978405;28;20073;-78
2022/04/21 07:27:47;;;;;;;3.72;3.42;;;9.70;99.90;;;;;;4976912;28;20027;-77
2022/04/21 07:30:13;;;;;;;4.00;3.70;;;9.70;99.90;;;;;;4958911;28;20027;-77
2022/04/21 07:32:39;;;;;;;4.78;4.38;;;9.70;99.90;;;;;;4960571;28;20024;-78
2022/04/21 07:35:05;;;;;;;5.35;4.80;;;9.70;99.90;;;;;;4962047;28;20372;-77
2022/04/21 07:37:33;;;;;;;5.40;4.90;;;9.70;99.90;;;;;;4963462;28;20175;-80
2022/04/21 07:39:59;;;;;;;4.60;4.20;;;9.80;99.90;;;;;;4976398;28;20101;-78
2022/04/21 07:42:25;;;;;;;5.70;5.10;;;9.80;99.90;;;;;;4977544;28;20038;-78
2022/04/21 07:44:51;;;;;;;6.68;4.93;;;9.80;99.90;;;;;;4966771;28;20022;-77
2022/04/21 07:47:17;;;;;;;8.20;7.38;;;9.70;99.90;;;;;;4974881;28;20085;-77
2022/04/21 07:49:46;;;;;;;6.75;6.13;;;9.80;99.90;;;;;;4977106;28;20074;-78
2022/04/21 07:54:56;;;;;;;5.32;4.72;;;9.80;99.90;;;;;;4980100;28;20089;-76
2022/04/21 07:57:22;;;;;;;4.03;3.63;;;9.90;99.90;;;;;;4962763;28;20035;-77
2022/04/21 07:59:48;;;;;;;4.00;3.67;;;9.90;99.90;;;;;;4969489;28;20110;-77
2022/04/21 08:02:16;;;;;;;4.63;4.18;;;9.90;99.90;;;;;;4977011;28;20459;-78
2022/04/21 08:04:44;;;;;;;3.90;3.60;;;9.90;99.90;;;;;;4970317;28;20035;-76
2022/04/21 08:07:10;;;;;;;3.92;3.63;;;9.90;99.90;;;;;;4965537;28;20024;-77
2022/04/21 08:09:36;;;;;;;3.67;3.15;;;9.90;99.90;;;;;;4970218;28;20019;-77
2022/04/21 08:12:02;;;;;;;4.22;3.80;;;9.90;99.90;;;;;;4961920;28;20132;-77
2022/04/21 08:14:28;;;;;;;3.53;3.22;;;10.00;99.90;;;;;;4972442;28;20411;-77
2022/04/21 08:16:54;;;;;;;3.80;3.15;;;10.00;99.90;;;;;;4998757;28;20057;-77
2022/04/21 08:19:21;;;;;;;4.07;3.70;;;10.00;99.90;;;;;;4982535;28;20027;-77
2022/04/21 08:21:49;;;;;;;3.92;3.53;;;10.00;99.90;;;;;;4982815;28;20376;-77
2022/04/21 08:32:44;;;;;;;10.77;3.67;;;10.10;99.90;;;;;;4987094;28;20038;-76
2022/04/21 08:35:13;;;;;;;3.20;3.00;;;10.20;99.90;;;;;;4989133;28;20552;-76
2022/04/21 08:37:44;;;;;;;3.72;3.40;;;10.20;99.90;;;;;;4985474;28;20023;-76
2022/04/21 08:40:10;;;;;;;3.63;2.80;;;10.20;99.90;;;;;;4998494;28;20390;-76
2022/04/21 08:42:41;;;;;;;3.90;3.03;;;10.20;99.90;;;;;;4995461;28;20023;-77
2022/04/21 08:45:12;;;;;;;3.38;3.08;;;10.20;99.90;;;;;;4995949;28;20422;-78
2022/04/21 08:47:40;;;;;;;4.85;3.33;;;10.20;99.90;;;;;;4995386;28;20106;-78
2022/04/21 08:50:07;;;;;;;5.07;4.65;;;10.30;99.90;;;;;;4989912;28;20030;-78
2022/04/21 08:52:34;;;;;;;4.40;4.00;;;10.30;99.90;;;;;;4980348;28;20103;-77
2022/04/21 08:55:03;;;;;;;5.05;4.22;;;10.30;99.90;;;;;;4980315;28;20041;-78
2022/04/21 08:57:35;;;;;;;4.25;3.85;;;10.30;99.90;;;;;;4979838;28;20103;-78
2022/04/21 09:00:06;;;;;;;3.60;3.10;;;10.30;99.90;;;;;;4984099;28;20066;-77
2022/04/21 09:02:44;;;;;;;4.60;4.05;;;10.30;99.90;;;;;;4982529;28;20041;-78
2022/04/21 09:05:11;;;;;;;3.35;3.03;;;10.20;99.90;;;;;;4997550;28;20022;-77
2022/04/21 09:07:53;;;;;;;8.55;4.93;;;10.20;99.90;;;;;;4991302;28;20019;-77
2022/04/21 09:10:20;;;;;;;4.00;3.58;;;10.20;99.90;;;;;;4999084;28;20497;-78
2022/04/21 09:12:52;;;;;;;3.58;3.28;;;10.10;99.90;;;;;;4999265;28;20076;-78
2022/04/21 09:15:26;;;;;;;5.20;3.50;;;10.10;99.90;;;;;;4980966;28;20118;-79
2022/04/21 09:17:56;;;;;;;4.25;3.85;;;10.10;99.90;;;;;;4972833;28;20035;-79
2022/04/21 09:20:24;;;;;;;5.85;5.35;;;10.20;99.90;;;;;;4995659;28;20103;-79
2022/04/21 09:22:52;;;;;;;7.63;5.55;;;10.20;99.90;;;;;;4997995;28;20510;-78
2022/04/21 09:25:26;;;;;;;3.85;3.55;;;10.30;99.90;;;;;;4998370;28;20122;-79
2022/04/21 09:27:53;;;;;;;3.47;3.17;;;10.40;99.90;;;;;;4999946;28;20029;-78
2022/04/21 09:30:19;;;;;;;3.80;3.17;;;10.50;99.90;;;;;;5001249;28;20030;-78
2022/04/21 09:32:55;;;;;;;4.00;3.17;;;10.70;99.90;;;;;;4999175;28;20696;-78
2022/04/21 09:35:28;;;;;;;2.97;2.67;;;10.90;99.90;;;;;;4992363;28;20094;-79
2022/04/21 09:37:57;;;;;;;3.30;2.95;;;11.00;99.90;;;;;;4983799;28;20034;-79
2022/04/21 09:40:28;;;;;;;4.32;3.35;;;11.10;99.90;;;;;;4967629;28;20084;-79
2022/04/21 09:43:02;;;;;;;3.90;2.97;;;11.30;99.90;;;;;;5000654;28;20049;-79
2022/04/21 09:48:31;;;;;;;3.72;2.75;;;11.50;99.90;;;;;;4986243;28;20030;-78
2022/04/21 09:51:18;;;;;;;2.85;2.63;;;11.50;99.90;;;;;;4979844;28;20503;-78
2022/04/21 09:54:04;;;;;;;3.72;3.00;;;11.40;99.90;;;;;;4991128;28;20034;-80
2022/04/21 09:56:35;;;;;;;3.50;3.00;;;11.40;99.90;;;;;;4986327;28;20023;-78
2022/04/21 09:59:12;;;;;;;3.47;3.17;;;11.40;99.90;;;;;;4978501;28;20027;-78
2022/04/21 10:01:42;;;;;;;3.65;2.92;;;11.40;99.90;;;;;;4961463;28;20037;-81
2022/04/21 10:04:11;;;;;;;3.97;2.92;;;11.50;99.90;;;;;;4979086;28;20026;-78
2022/04/21 10:06:42;;;;;;;3.00;2.70;;;11.50;99.90;;;;;;4961135;28;20498;-77
2022/04/21 10:09:09;;;;;;;5.25;2.97;;;11.50;99.90;;;;;;4981074;28;20427;-79
2022/04/21 10:11:38;;;;;;;2.97;2.42;;;11.50;99.90;;;;;;4962886;28;20074;-77
2022/04/21 10:14:05;;;;;;;2.75;2.53;;;11.50;99.90;;;;;;4998379;28;20049;-80
2022/04/21 10:16:34;;;;;;;3.13;2.83;;;11.40;99.90;;;;;;4996248;28;20053;-79
2022/04/21 10:19:02;;;;;;;3.45;2.70;;;11.40;99.90;;;;;;4969422;28;20522;-81
2022/04/21 10:21:36;;;;;;;2.45;2.20;;;11.50;99.90;;;;;;4980361;28;20026;-78
2022/04/21 10:24:03;;;;;;;3.92;3.00;;;11.50;99.90;;;;;;4971171;28;20035;-79
2022/04/21 10:26:37;;;;;;;2.42;2.20;;;11.60;99.90;;;;;;4978322;28;20034;-80
2022/04/21 10:29:14;;;;;;;3.42;2.58;;;11.60;99.90;;;;;;4963786;28;20041;-82
2022/04/21 10:31:51;;;;;;;3.17;2.88;;;11.60;99.90;;;;;;4990671;28;20019;-80
2022/04/21 10:34:37;;;;;;;3.80;2.78;;;11.60;99.90;;;;;;4978074;28;20031;-79
2022/04/21 10:37:31;;;;;;;2.58;2.20;;;11.60;99.90;;;;;;4980508;28;20505;-81
2022/04/21 10:40:14;;;;;;;2.58;2.38;;;11.40;99.90;;;;;;4980389;28;20066;-78
2022/04/21 10:42:52;;;;;;;3.33;2.85;;;11.40;99.90;;;;;;4963857;28;20126;-80
2022/04/21 10:45:31;;;;;;;3.60;3.10;;;11.30;99.90;;;;;;4988441;28;20054;-79
2022/04/21 10:48:12;;;;;;;3.10;2.80;;;11.30;99.90;;;;;;4995279;28;20030;-79
2022/04/21 10:50:40;;;;;;;3.05;2.70;;;11.20;99.90;;;;;;4992790;28;20025;-78
2022/04/21 10:58:37;;;;;;;3.38;2.90;;;11.30;99.90;;;;;;4977920;28;20038;-78
2022/04/21 11:01:11;;;;;;;2.95;2.65;;;11.20;99.90;;;;;;4982234;28;20022;-79
2022/04/21 11:03:38;;;;;;;23.88;18.33;;;11.20;99.90;;;;;;4997583;28;20521;-79
2022/04/21 11:06:12;;;;;;;10.73;8.02;;;11.10;99.90;;;;;;4961754;28;20023;-80
2022/04/21 11:08:39;;;;;;;4.60;3.20;;;11.10;99.90;;;;;;4984812;28;20035;-80
2022/04/21 11:11:05;;;;;;;4.70;3.72;;;11.10;99.90;;;;;;4987512;28;20055;-79
2022/04/21 11:13:50;;;;;;;3.42;3.05;;;11.00;99.90;;;;;;4981997;28;20130;-79
2022/04/21 11:16:55;;;;;;;3.50;3.20;;;11.00;99.90;;;;;;5004469;28;20545;-80
2022/04/21 11:19:31;;;;;;;6.53;4.13;;;11.00;99.90;;;;;;4925576;29;20043;-79
2022/04/21 11:22:08;;;;;;;3.40;3.00;;;11.00;99.90;;;;;;4907304;29;20028;-78
2022/04/21 11:24:55;;;;;;;4.03;3.55;;;11.00;99.90;;;;;;4978211;28;20062;-79
2022/04/21 11:27:26;;;;;;;4.05;3.65;;;11.00;99.90;;;;;;4986990;28;20090;-79
2022/04/21 11:29:52;;;;;;;3.72;3.42;;;11.00;99.90;;;;;;5002929;28;20022;-78
2022/04/21 11:32:19;;;;;;;8.80;3.38;;;10.90;99.90;;;;;;4985578;28;20034;-79
2022/04/21 11:35:01;;;;;;;3.53;3.22;;;10.90;99.90;;;;;;4990206;28;20504;-78
2022/04/21 11:37:55;;;;;;;6.18;4.20;;;10.80;99.90;;;;;;4990995;28;20545;-76
2022/04/21 11:40:28;;;;;;;4.55;3.58;;;10.80;99.90;;;;;;4983770;28;20027;-77
2022/04/21 11:42:56;;;;;;;6.75;3.80;;;10.80;99.90;;;;;;5000117;28;20022;-79
2022/04/21 11:45:30;;;;;;;4.20;3.80;;;10.80;99.90;;;;;;4994261;28;20038;-79
2022/04/21 11:47:56;;;;;;;3.58;3.20;;;10.80;99.90;;;;;;4986598;28;20481;-80
2022/04/21 11:50:27;;;;;;;3.50;3.20;;;10.80;99.90;;;;;;5002690;28;20034;-79
2022/04/21 11:52:56;;;;;;;4.50;4.10;;;10.90;99.90;;;;;;5000762;28;20041;-80
2022/04/21 11:55:27;;;;;;;9.80;3.60;;;10.90;99.90;;;;;;4979285;28;20035;-77
2022/04/21 11:57:53;;;;;;;4.13;3.72;;;11.00;99.90;;;;;;4979694;28;20026;-77
2022/04/21 12:08:44;;;;;;;6.50;4.45;;;11.00;99.90;;;;;;4997073;28;20037;-78
2022/04/21 12:11:12;;;;;;;5.43;4.47;;;11.00;99.90;;;;;;5001112;28;20090;-79
2022/04/21 12:13:38;;;;;;;5.05;3.75;;;11.00;99.90;;;;;;4982719;28;20022;-79
2022/04/21 12:16:04;;;;;;;4.53;4.05;;;11.00;99.90;;;;;;4991322;28;20047;-79
2022/04/21 12:18:47;;;;;;;7.60;5.63;;;11.00;99.90;;;;;;4996350;28;20022;-78
2022/04/21 12:21:14;;;;;;;5.45;4.20;;;11.10;99.90;;;;;;4984372;28;20023;-78
2022/04/21 12:23:39;;;;;;;4.20;3.80;;;11.10;99.90;;;;;;5001931;28;20014;-79
2022/04/21 12:26:08;;;;;;;6.22;3.83;;;11.10;99.90;;;;;;4983587;28;20022;-78
2022/04/21 12:28:47;;;;;;;4.10;3.70;;;11.10;99.90;;;;;;4993117;28;20033;-78
2022/04/21 12:31:18;;;;;;;4.93;4.45;;;11.10;99.90;;;;;;4986879;28;20019;-77
2022/04/21 12:33:44;;;;;;;5.80;4.30;;;11.20;99.90;;;;;;5000738;28;20034;-79
2022/04/21 12:36:10;;;;;;;5.00;4.50;;;11.20;99.90;;;;;;4977511;28;20031;-78
2022/04/21 12:39:01;;;;;;;5.18;4.45;;;11.20;99.90;;;;;;4984342;28;20045;-79
2022/04/21 12:41:27;;;;;;;5.72;5.22;;;11.30;99.90;;;;;;4999359;28;20019;-78
2022/04/21 12:43:53;;;;;;;5.60;5.10;;;11.40;99.90;;;;;;5000805;28;20445;-79
2022/04/21 12:46:20;;;;;;;5.72;4.80;;;11.50;99.90;;;;;;4981509;28;20026;-79
2022/04/21 12:48:50;;;;;;;7.55;6.30;;;11.70;99.90;;;;;;5000078;28;20030;-79
2022/04/21 12:51:19;;;;;;;5.90;5.07;;;11.80;99.90;;;;;;4993404;28;20018;-78
2022/04/21 12:53:57;;;;;;;6.28;5.25;;;11.90;99.90;;;;;;4999921;28;20634;-78
2022/04/21 12:56:34;;;;;;;6.93;5.18;;;12.10;99.90;;;;;;5000871;28;20027;-76
2022/04/21 12:59:01;;;;;;;8.80;4.55;;;12.20;99.90;;;;;;4996863;28;20558;-79
2022/04/21 13:01:27;;;;;;;7.50;5.07;;;12.30;99.90;;;;;;4980136;28;20019;-78
2022/04/21 13:03:54;;;;;;;4.75;3.88;;;12.30;99.90;;;;;;4981771;28;20482;-79
2022/04/21 13:06:30;;;;;;;5.30;4.40;;;12.30;99.90;;;;;;4964495;28;20478;-79
2022/04/21 13:08:56;;;;;;;5.78;5.28;;;12.30;99.90;;;;;;4976066;28;20046;-78
2022/04/21 13:11:24;;;;;;;110.60;51.78;;;12.40;99.90;;;;;;4970438;28;20031;-78
2022/04/21 13:13:52;;;;;;;5.07;4.35;;;12.60;99.90;;;;;;4982251;28;20026;-81
2022/04/21 13:16:18;;;;;;;5.28;4.25;;;12.80;99.90;;;;;;4994480;28;20050;-79
2022/04/21 13:18:47;;;;;;;6.20;4.78;;;13.00;99.90;;;;;;4984452;28;20114;-79
2022/04/21 13:24:00;;;;;;;5.30;4.65;;;13.10;99.90;;;;;;5001457;28;20559;-77
2022/04/21 13:26:28;;;;;;;4.50;3.80;;;13.10;99.90;;;;;;4997933;28;20025;-79
2022/04/21 13:28:58;;;;;;;4.40;4.00;;;13.10;99.90;;;;;;4984162;28;20406;-79
2022/04/21 13:34:09;;;;;;;5.95;4.78;;;13.00;99.90;;;;;;4997037;28;20029;-77
2022/04/21 13:36:38;;;;;;;12.40;4.07;;;13.20;99.90;;;;;;4979701;28;20033;-79
2022/04/21 13:39:05;;;;;;;7.95;3.90;;;13.10;99.90;;;;;;4981011;28;20033;-77
2022/04/21 13:41:31;;;;;;;5.30;3.47;;;13.00;99.90;;;;;;4961589;28;20030;-80
2022/04/21 13:43:57;;;;;;;5.70;3.35;;;12.90;99.90;;;;;;4967833;28;20515;-78
2022/04/21 13:46:26;;;;;;;4.03;3.13;;;12.90;99.90;;;;;;4966166;28;20061;-79
2022/04/21 13:48:52;;;;;;;5.35;3.30;;;12.80;99.90;;;;;;4994990;28;20027;-79
2022/04/21 13:51:25;;;;;;;3.75;3.35;;;12.70;99.90;;;;;;4979497;28;20077;-79
2022/04/21 13:53:52;;;;;;;3.75;3.40;;;12.70;99.90;;;;;;4967513;28;20062;-78
2022/04/21 13:56:18;;;;;;;3.75;3.20;;;12.60;99.90;;;;;;4980592;28;20018;-81
2022/04/21 13:58:44;;;;;;;3.85;3.40;;;12.50;99.90;;;;;;4996614;28;20023;-82
2022/04/21 14:01:10;;;;;;;5.80;3.58;;;12.40;99.90;;;;;;4961623;28;20037;-82